Slater, South Carolina
Current Conditions -  °F | °C
As of 2:53 PM on Monday 24 Nov 2014 (Local Time) from KGMU Reporting Station
Clear Clear  
Wind Chill: 71°   Ceiling: Unl
Heat Index: 71°   Visibility: 10mi
Dew Point: 54°   Wind: 15mph
Humidity: 55%   Direction: 230°SW
Pressure: 29.78"   Gusts: NA
Location:  35.03°N, 82.5°W
Report Text: KGMU 241953Z 23013KT 10SM CLR 22/12 A2978 RMK AO2 SLP079 T02170122
Loading
Personal Weather Stations






























Interactive Weather Map New forecast layout! Learn more

10-Day Weather Forecast

Advertisements
Track Severe Weather on mobile